Etusivu
METAR-TAF:

METAR-TAF

Lentoasemat :

Tri-County Regional Airport

Lone Rock, Wisconsin, Yhdysvallat

Leveyspiiri: 43-12-43N, Pituuspiiri: 090-10-53W, korkeus merenpinnasta: 219 m

Tämänhetkinen sää

Tämä raportti tehtiin 44 minuuttia sitten, kello 07.56 UTC
tyyntä
Lämpötila 6°C
Kosteus 87%
Ilmanpaine 1016 hPa
Näkyvyys: 16.1 km
selkeää

METAR: KLNR 240756Z AUTO 00000KT 10SM CLR 06/04 A2999 RMK AO2 SLP153 T00560039

Aika: 03:40 (08:40 UTC)


TAF: puuttuu

Säähavainnot ja -ennusteet yli 4000 lentoasemalta (METAR- ja TAF-raportit).

Käytössä olevat sääasemat on merkitty karttaan keltaisilla ja punaisilla pisteillä.

Aseta hiiri pisteen päälle nähdäksesi sääaseman nimen.

Klikkaa sitten nähdäksesi säähavainnot ja -ennusteet.

Kartan vaihtaminen: klikkaa mustalla rastilla varustettuja vihreitä pisteitä, niin voit zoomata sisään; viivalla varustettua vihreää pistettä, niin voit zoomata ulos tai vihreitä nuolia, niin pääset viereisille kartoille.


METAR-TAF: